Latest Weather Observations for Double Island Point

IDQ60801

Issued at 6:02 pm EST Sunday 2 August 2015 (issued every 30 minutes, with the page automatically refreshed every 10 minutes)

About weather observations | Map of weather stations | Latest weather observations for QLD | Other Formats
Station Details ID: 040068 Name: DOUBLE ISLAND POINT LIGHTHOUSE Lat: -25.93 Lon: 153.19 Height: 95.64 m
Data from the previous 72 hours. | See also: Recent months at Double Island Point
Date/Time
EST
Temp
°C
App
Temp
°C
Dew
Point
Rel
Hum
%
Delta-T
°C
Wind Press
QNH
hPa
Press
MSL
hPa
Rain
since 9 am
mm
Dir
 
Spd
km/h
Gust
km/h
Spd
kts
Gust
kts
02/06:00pm 19.5 18.0 15.2 76 2.5 N 17 30 9 16 1020.1 1019.9 0.0
02/05:30pm 19.6 18.7 14.8 74 2.8 N 13 22 7 12 1019.9 1019.7 0.0
02/05:00pm 20.4 19.6 15.0 71 3.2 N 13 22 7 12 1019.8 1019.6 0.0
02/04:30pm 21.1 20.5 14.7 67 3.8 N 11 19 6 10 1019.8 1019.6 0.0
02/04:00pm 22.5 22.5 15.1 63 4.4 N 9 15 5 8 1020.1 1019.9 0.0
02/03:30pm 22.1 21.5 14.7 63 4.4 N 11 19 6 10 1020.2 1020.0 0.0
02/03:00pm 22.9 22.0 13.7 56 5.4 N 11 17 6 9 1020.0 1019.8 0.0
02/02:30pm 24.5 24.4 14.0 52 6.2 N 7 13 4 7 1020.2 1020.0 0.0
02/02:00pm 24.9 24.5 14.1 51 6.4 NNW 9 15 5 8 1020.6 1020.4 0.0
02/01:30pm 23.9 22.1 13.2 51 6.2 NNW 15 20 8 11 1020.9 1020.7 0.0
02/01:00pm 23.4 21.8 13.8 54 5.6 NNW 15 20 8 11 1021.3 1021.1 0.0
02/12:30pm 24.1 23.0 14.2 54 5.9 NNW 13 19 7 10 1021.6 1021.4 0.0
02/12:00pm 22.5 20.6 13.0 55 5.5 NNW 15 20 8 11 1022.1 1021.9 0.0
02/11:30am 23.7 23.5 14.7 57 5.4 NNW 9 15 5 8 1022.4 1022.2 0.0
02/11:00am 22.4 21.5 13.7 58 5.1 NNW 11 15 6 8 1022.9 1022.8 0.0
02/10:30am 21.3 19.7 12.7 58 4.9 NW 13 17 7 9 1023.1 1023.0 0.0
02/10:00am 22.2 21.8 14.1 60 4.7 NNW 9 13 5 7 1023.3 1023.2 0.0
02/09:30am 20.6 19.9 13.3 63 4.2 NW 9 13 5 7 1023.4 1023.3 0.0
02/09:00am 19.7 18.1 12.9 65 3.8 NW 13 15 7 8 1023.4 1023.3 0.0
02/08:30am 19.0 17.4 12.7 67 3.5 WNW 13 17 7 9 1023.2 1023.1 0.0
02/08:00am 18.6 17.1 13.0 70 3.2 WNW 13 17 7 9 1023.2 1023.1 0.0
02/07:30am 17.9 15.5 12.6 71 3.0 WNW 17 17 9 9 1023.2 1023.1 0.0
02/07:00am 17.5 15.3 12.2 71 2.9 WNW 15 15 8 8 1022.9 1022.8 0.0
02/06:30am 17.0 14.9 12.5 75 2.5 WNW 15 17 8 9 1022.7 1022.6 0.0
02/06:00am 16.9 14.9 12.8 77 2.3 NW 15 17 8 9 1022.5 1022.3 0.0
02/05:30am 16.8 14.8 12.7 77 2.3 NW 15 17 8 9 1022.4 1022.2 0.0
02/05:00am 17.0 15.0 12.7 76 2.4 WNW 15 17 8 9 1022.2 1022.0 0.0
02/04:30am 17.1 14.7 12.6 75 2.5 WNW 17 17 9 9 1022.0 1021.8 0.0
02/04:00am 17.1 14.8 13.0 77 2.3 NW 17 17 9 9 1021.9 1021.7 0.0
02/03:30am 17.2 15.3 13.1 77 2.3 NW 15 15 8 8 1021.9 1021.7 0.0
02/03:00am 17.3 15.5 13.2 77 2.3 NW 15 17 8 9 1022.1 1021.9 0.0
02/02:30am 17.3 15.5 13.4 78 2.2 NW 15 17 8 9 1022.1 1021.9 0.0
02/02:00am 17.3 15.8 13.2 77 2.3 NNW 13 13 7 7 1022.3 1022.1 0.0
02/01:30am 17.4 16.2 12.9 75 2.5 NNW 11 17 6 9 1022.6 1022.5 0.0
02/01:00am 17.9 16.7 12.8 72 2.9 N 11 15 6 8 1022.7 1022.6 0.0
02/12:30am 17.9 15.9 12.6 71 3.0 N 15 19 8 10 1022.8 1022.7 0.0
02/12:00am 17.9 15.4 12.4 70 3.1 N 17 20 9 11 1022.9 1022.8 0.0
 
Date/Time
EST
Temp
°C
App
Temp
°C
Dew
Point
Rel
Hum
%
Delta-T
°C
Wind Press
QNH
hPa
Press
MSL
hPa
Rain
since 9 am
mm
Dir
 
Spd
km/h
Gust
km/h
Spd
kts
Gust
kts
01/11:30pm 18.0 16.2 12.2 69 3.2 N 13 19 7 10 1023.2 1023.1 0.0
01/11:00pm 17.8 15.4 12.5 71 2.9 N 17 24 9 13 1023.3 1023.2 0.0
01/10:30pm 17.6 15.9 12.5 72 2.8 NNE 13 17 7 9 1023.2 1023.1 0.0
01/10:00pm 17.7 16.3 12.2 70 3.0 NE 11 15 6 8 1023.3 1023.2 0.0
01/09:30pm 18.0 16.2 12.0 68 3.3 NE 13 15 7 8 1023.4 1023.3 0.0
01/09:00pm 18.2 16.4 12.0 67 3.4 ENE 13 15 7 8 1023.5 1023.4 0.0
01/08:30pm 18.0 15.9 11.3 65 3.7 NE 13 15 7 8 1023.3 1023.2 0.0
01/08:00pm 18.6 16.0 11.9 65 3.7 ENE 17 19 9 10 1023.1 1023.0 0.0
01/07:30pm 18.5 17.2 11.1 62 4.0 ENE 9 13 5 7 1022.9 1022.8 0.0
01/07:00pm 18.5 15.3 11.1 62 4.0 NE 19 22 10 12 1022.5 1022.3 0.0
01/06:30pm 18.3 15.9 11.4 64 3.8 NE 15 20 8 11 1022.1 1021.9 0.0
01/06:00pm 18.1 16.0 11.2 64 3.7 NE 13 17 7 9 1021.8 1021.6 0.0
01/05:30pm 18.5 17.2 11.1 62 4.0 NE 9 15 5 8 1021.7 1021.5 0.0
01/05:00pm 19.9 18.9 11.1 57 4.8 NNE 7 11 4 6 1021.5 1021.3 0.0
01/04:30pm 20.3 19.5 11.0 55 5.1 NE 6 7 3 4 1021.5 1021.3 0.0
01/04:00pm 20.9 20.8 10.7 52 5.6 NE 2 7 1 4 1021.6 1021.4 0.0
01/03:30pm 21.9 21.1 11.6 52 5.8 NNE 7 9 4 5 1021.4 1021.2 0.0
01/03:00pm 23.2 22.7 11.9 49 6.4 N 6 7 3 4 1021.3 1021.1 0.0
01/02:30pm 23.4 22.7 12.1 49 6.4 N 7 9 4 5 1021.2 1021.0 0.0
01/02:00pm 22.9 22.0 12.5 52 5.9 NNE 9 9 5 5 1021.4 1021.2 0.0
01/01:30pm 20.5 20.0 12.7 61 4.4 ESE 7 9 4 5 1021.6 1021.4 0.0
01/01:00pm 21.9 21.6 12.7 56 5.2 NE 6 9 3 5 1022.0 1021.8 0.0
01/12:30pm 20.5 20.0 12.7 61 4.4 E 7 9 4 5 1022.5 1022.3 0.0
01/12:00pm 20.9 20.4 12.6 59 4.7 E 7 9 4 5 1023.0 1022.9 0.0
01/11:30am 21.6 21.7 14.5 64 4.2 ESE 7 11 4 6 1023.6 1023.5 0.0
01/11:00am 21.1 20.7 14.0 64 4.1 ESE 9 11 5 6 1024.0 1023.9 0.0
01/10:30am 20.3 20.0 13.3 64 4.0 SE 7 9 4 5 1024.4 1024.2 0.0
01/10:00am 20.4 20.1 13.4 64 4.0 SE 7 11 4 6 1024.5 1024.3 0.0
01/09:30am 20.2 19.7 12.7 62 4.3 SE 7 11 4 6 1024.2 1024.1 0.0
01/09:00am 19.4 18.4 12.4 64 3.9 ESE 9 13 5 7 1023.8 1023.7 0.0
01/08:30am 19.7 18.4 12.5 63 4.1 E 11 15 6 8 1023.5 1023.4 0.0
01/08:00am 18.6 18.0 13.5 72 2.9 ESE 9 11 5 6 1023.2 1023.1 0.0
01/07:30am 17.8 17.6 13.5 76 2.4 SE 7 9 4 5 1023.1 1023.0 0.0
01/07:00am 16.7 15.8 12.5 76 2.3 SSE 9 11 5 6 1023.0 1022.9 0.0
01/06:30am 16.4 15.8 12.2 76 2.3 SSE 7 9 4 5 1022.8 1022.7 0.0
01/06:00am 16.5 15.8 12.1 75 2.4 SSE 7 9 4 5 1022.5 1022.4 0.0
01/05:30am 16.5 15.8 11.9 74 2.5 SSE 7 9 4 5 1022.4 1022.3 0.0
01/05:00am 16.6 15.4 11.5 72 2.8 SSE 9 11 5 6 1022.1 1022.0 0.0
01/04:30am 16.7 15.3 11.0 69 3.1 SSE 9 11 5 6 1021.9 1021.8 0.0
01/04:00am 16.7 15.2 10.5 67 3.3 S 9 9 5 5 1021.8 1021.7 0.0
01/03:30am 16.9 15.1 10.7 67 3.3 S 11 13 6 7 1021.8 1021.7 0.0
01/03:00am 16.8 15.6 10.4 66 3.4 SSE 7 7 4 4 1022.0 1021.9 0.0
01/02:30am 17.5 16.4 10.1 62 3.9 SE 6 7 3 4 1022.0 1021.9 0.0
01/02:00am 17.5 16.5 10.4 63 3.8 ESE 6 7 3 4 1022.0 1021.9 0.0
01/01:30am 17.8 17.3 10.7 63 3.8 NW 4 6 2 3 1022.1 1022.0 0.0
01/01:00am 17.4 16.0 10.8 65 3.5 WNW 9 9 5 5 1022.3 1022.2 0.0
01/12:30am 17.4 15.7 11.2 67 3.4 WNW 11 11 6 6 1022.3 1022.2 0.0
01/12:00am 17.2 16.0 11.5 69 3.1 WNW 9 11 5 6 1022.6 1022.5 0.0
 
Date/Time
EST
Temp
°C
App
Temp
°C
Dew
Point
Rel
Hum
%
Delta-T
°C
Wind Press
QNH
hPa
Press
MSL
hPa
Rain
since 9 am
mm
Dir
 
Spd
km/h
Gust
km/h
Spd
kts
Gust
kts
31/11:30pm 17.7 16.2 10.6 63 3.8 NNE 9 11 5 6 1022.6 1022.5 0.0
31/11:00pm 18.1 16.2 10.5 61 4.1 ENE 11 13 6 7 1022.4 1022.3 0.0
31/10:30pm 18.1 17.0 10.7 62 4.0 NE 7 11 4 6 1022.5 1022.4 0.0
31/10:00pm 17.7 16.3 10.8 64 3.7 NNE 9 13 5 7 1022.5 1022.4 0.0
31/09:30pm 18.0 16.6 10.9 63 3.8 NE 9 15 5 8 1022.4 1022.3 0.0
31/09:00pm 17.9 16.1 10.8 63 3.8 NE 11 13 6 7 1022.1 1022.0 0.0
31/08:30pm 18.1 16.0 9.7 58 4.5 NE 11 17 6 9 1021.9 1021.8 0.0
31/08:00pm 18.2 15.7 9.8 58 4.4 NE 13 17 7 9 1021.8 1021.7 0.0
31/07:30pm 18.0 16.1 9.1 56 4.7 NE 9 15 5 8 1021.5 1021.4 0.0
31/07:00pm 18.1 15.9 9.5 57 4.5 NE 11 17 6 9 1021.5 1021.4 0.0
31/06:30pm 17.9 16.3 10.3 61 4.1 NE 9 15 5 8 1021.2 1021.1 0.0
31/06:00pm 18.0 16.2 10.9 63 3.8 NE 11 15 6 8 1021.0 1020.9 0.0
31/05:30pm 18.4 16.8 10.3 59 4.4 NE 9 13 5 7 1021.1 1021.0 0.0
31/05:00pm 19.8 18.7 10.8 56 4.9 NE 7 11 4 6 1020.7 1020.6 0.0
31/04:30pm 20.6 19.3 11.2 55 5.2 NNE 9 17 5 9 1020.5 1020.4 0.0
31/04:00pm 20.4 18.3 11.1 55 5.1 NE 13 17 7 9 1020.7 1020.6 0.0
31/03:30pm 20.7 19.4 11.3 55 5.2 NE 9 13 5 7 1020.7 1020.6 0.0
31/03:00pm 21.0 19.2 9.6 48 6.1 NE 9 15 5 8 1020.9 1020.8 0.0
31/02:30pm 23.4 22.2 12.7 51 6.2 NNE 11 15 6 8 1020.8 1020.7 0.0
31/02:00pm 23.4 21.2 12.1 49 6.4 NNE 15 19 8 10 1020.9 1020.8 0.0
31/01:30pm 23.6 22.0 12.9 51 6.2 NNE 13 17 7 9 1021.2 1021.1 0.0
31/01:00pm 23.7 22.3 13.3 52 6.0 NNE 13 15 7 8 1021.6 1021.5 0.0
31/12:30pm 23.4 22.9 12.7 51 6.2 N 7 11 4 6 1022.2 1022.1 0.0
31/12:00pm 23.1 22.8 13.3 54 5.7 N 7 11 4 6 1022.7 1022.6 0.0
31/11:30am 22.7 22.2 12.6 53 5.8 N 7 11 4 6 1023.3 1023.2 0.0
31/11:00am 22.5 22.3 13.6 57 5.2 N 7 11 4 6 1023.8 1023.7 0.0
31/10:30am 21.3 20.7 12.2 56 5.1 NE 7 9 4 5 1023.8 1023.7 0.0
31/10:00am 21.3 21.4 12.7 58 4.9 NE 4 7 2 4 1024.4 1024.2 0.0
31/09:30am 20.6 20.8 13.1 62 4.3 SW 4 9 2 5 1024.5 1024.3 0.0
31/09:00am 19.9 19.2 11.9 60 4.4 N 7 7 4 4 1024.2 1024.1 0.0
31/08:30am 19.4 19.0 12.4 64 3.9 N 6 7 3 4 1024.1 1024.0 0.0
31/08:00am 17.8 17.3 12.0 69 3.2 W 6 9 3 5 1024.0 1023.9 0.0
31/07:30am 16.9 15.6 12.6 76 2.4 W 11 13 6 7 1023.7 1023.6 0.0
31/07:00am 16.7 16.2 12.7 77 2.2 NNW 7 9 4 5 1022.9 1022.8 0.0
31/06:30am 16.2 15.5 12.0 76 2.3 NNW 7 9 4 5 1022.7 1022.6 0.0
31/06:00am 16.6 15.7 11.5 72 2.8 WNW 7 9 4 5 1022.9 1022.8 0.0
31/05:30am 17.0 16.3 12.1 73 2.7 W 7 9 4 5 1023.1 1023.0 0.0
31/05:00am 16.7 16.2 12.0 74 2.6 W 6 7 3 4 1022.8 1022.7 0.0
31/04:30am 16.9 16.5 12.4 75 2.5 WNW 6 7 3 4 1022.5 1022.4 0.0
31/04:00am 16.6 14.5 11.3 71 2.9 NNE 13 15 7 8 1022.3 1022.2 0.0
31/03:30am 16.7 14.7 11.6 72 2.8 NNE 13 15 7 8 1022.5 1022.4 0.0
31/03:00am 16.6 14.6 11.5 72 2.8 NNE 13 17 7 9 1022.5 1022.4 0.0
31/02:30am 16.8 15.2 11.7 72 2.8 NNE 11 15 6 8 1022.7 1022.6 0.0
31/02:00am 17.0 15.5 11.9 72 2.8 NE 11 15 6 8 1022.9 1022.8 0.0
31/01:30am 17.1 14.7 11.4 69 3.1 NE 15 17 8 9 1023.3 1023.2 0.0
31/01:00am 17.4 15.2 12.1 71 2.9 ENE 15 17 8 9 1023.5 1023.4 0.0
31/12:30am 17.6 15.4 12.1 70 3.0 ENE 15 17 8 9 1023.8 1023.7 0.0
31/12:00am 17.4 15.5 11.9 70 3.0 E 13 15 7 8 1024.2 1024.1 0.0
 
Date/Time
EST
Temp
°C
App
Temp
°C
Dew
Point
Rel
Hum
%
Delta-T
°C
Wind Press
QNH
hPa
Press
MSL
hPa
Rain
since 9 am
mm
Dir
 
Spd
km/h
Gust
km/h
Spd
kts
Gust
kts
30/11:30pm 16.9 15.2 11.2 69 3.1 ESE 11 15 6 8 1024.4 1024.2 0.0
30/11:00pm 17.2 16.0 11.7 70 3.0 SE 9 11 5 6 1024.5 1024.3 0.0
30/10:30pm 17.0 15.4 11.7 71 2.9 ESE 11 13 6 7 1024.6 1024.4 0.0
30/10:00pm 17.0 15.2 12.1 73 2.7 ESE 13 17 7 9 1024.8 1024.6 0.0
30/09:30pm 17.1 14.6 12.2 73 2.7 ESE 17 20 9 11 1025.0 1024.8 0.0
30/09:00pm 17.3 14.6 13.0 76 2.4 ESE 19 22 10 12 1024.9 1024.7 0.0
30/08:30pm 17.4 13.9 13.3 77 2.3 ESE 24 28 13 15 1024.2 1024.1 0.0
30/08:00pm 17.4 14.2 13.1 76 2.4 SE 22 24 12 13 1024.5 1024.3 0.0
30/07:30pm 17.3 14.4 13.0 76 2.4 SSE 20 24 11 13 1024.8 1024.6 0.0
30/07:00pm 17.4 14.6 13.1 76 2.4 SSE 20 26 11 14 1024.9 1024.7 0.0
30/06:30pm 17.4 14.6 13.1 76 2.4 SSE 20 26 11 14 1024.7 1024.5 0.0

Other Formats:

Comma delimited format used in spreadsheet applications
http://www.bom.gov.au/fwo/IDQ60801/IDQ60801.94584.axf

JavaScript Object Notation format (JSON) in row-major order
http://www.bom.gov.au/fwo/IDQ60801/IDQ60801.94584.json